createdAt,value
2019-06-07T00:00:53.784Z,90.23
2019-06-07T00:03:29.875Z,90.86
2019-06-07T00:05:58.023Z,91.12
2019-06-07T00:08:29.626Z,91.64
2019-06-07T00:11:01.870Z,92.03
2019-06-07T00:13:33.167Z,92.16
2019-06-07T00:22:32.370Z,91.37
2019-06-07T00:24:55.389Z,90.53
2019-06-07T00:27:26.830Z,90.03
2019-06-07T00:29:58.150Z,89.45
2019-06-07T00:32:29.462Z,88.52
2019-06-07T00:35:00.856Z,87.66
2019-06-07T00:37:32.125Z,87.53
2019-06-07T00:40:14.141Z,87.39
2019-06-07T00:42:37.100Z,87.57
2019-06-07T00:45:11.191Z,87.75
2019-06-07T00:47:43.242Z,87.95
2019-06-07T00:50:16.487Z,88.03
2019-06-07T00:55:27.114Z,88.63
2019-06-07T00:57:54.803Z,88.57
2019-06-07T01:00:26.721Z,88.69
2019-06-07T01:02:58.279Z,88.93
2019-06-07T01:05:31.560Z,89.36
2019-06-07T01:08:04.060Z,89.69
2019-06-07T01:10:52.896Z,89.88
2019-06-07T01:13:08.334Z,90.22
2019-06-07T01:15:39.762Z,90.44
2019-06-07T01:18:36.157Z,90.44
2019-06-07T01:20:44.346Z,90.37
2019-06-07T01:23:55.338Z,90.19
2019-06-07T01:25:48.664Z,90.41
2019-06-07T01:28:23.551Z,90.90
2019-06-07T01:30:53.833Z,91.11
2019-06-07T01:33:38.960Z,91.30
2019-06-07T01:35:58.154Z,91.67
2019-06-07T01:38:30.142Z,91.81
2019-06-07T01:41:01.716Z,91.95
2019-06-07T01:43:32.983Z,92.01
2019-06-07T01:46:04.666Z,92.19
2019-06-07T01:48:49.018Z,92.08
2019-06-07T01:51:08.841Z,91.58
2019-06-07T01:53:41.150Z,91.46
2019-06-07T01:56:12.370Z,91.83
2019-06-07T01:58:43.938Z,91.75
2019-06-07T02:01:15.492Z,91.88
2019-06-07T02:03:46.760Z,92.15
2019-06-07T02:06:18.476Z,92.51
2019-06-07T02:08:49.800Z,92.88
2019-06-07T02:11:22.442Z,93.10
2019-06-07T02:16:25.378Z,93.37
2019-06-07T02:19:01.612Z,93.39
2019-06-07T02:21:31.614Z,93.47
2019-06-07T02:24:04.323Z,93.42
2019-06-07T02:26:35.609Z,93.40
2019-06-07T02:29:07.129Z,93.47
2019-06-07T02:31:39.965Z,93.49
2019-06-07T02:34:11.553Z,93.49
2019-06-07T02:36:43.010Z,93.51
2019-06-07T02:39:15.952Z,93.53
2019-06-07T02:41:47.542Z,93.48
2019-06-07T02:44:18.897Z,93.47
2019-06-07T02:46:50.322Z,93.38
2019-06-07T02:49:25.304Z,93.30
2019-06-07T02:51:55.298Z,93.13
2019-06-07T02:54:32.411Z,93.03
2019-06-07T02:57:03.914Z,92.95
2019-06-07T03:00:03.751Z,92.91
2019-06-07T03:02:08.450Z,92.89
2019-06-07T03:04:44.757Z,92.89
2019-06-07T03:07:17.856Z,92.83
2019-06-07T03:09:51.387Z,92.59
2019-06-07T03:12:26.563Z,92.48
2019-06-07T03:15:00.022Z,92.57
2019-06-07T03:17:54.414Z,92.71
2019-06-07T03:20:29.948Z,92.87
2019-06-07T03:23:02.844Z,93.12
2019-06-07T03:25:40.157Z,93.03
2019-06-07T03:28:11.455Z,93.04
2019-06-07T03:31:01.075Z,92.95
2019-06-07T03:33:15.855Z,92.97
2019-06-07T03:35:47.301Z,93.00
2019-06-07T03:38:18.900Z,92.91
2019-06-07T03:40:50.240Z,92.88
2019-06-07T03:43:21.644Z,92.95
2019-06-07T03:45:53.111Z,93.07
2019-06-07T03:48:24.290Z,93.12
2019-06-07T03:51:04.227Z,93.20
2019-06-07T03:53:30.493Z,93.36
2019-06-07T03:56:02.288Z,93.48
2019-06-07T03:58:45.748Z,93.52
2019-06-07T04:01:07.036Z,93.65
2019-06-07T04:03:46.958Z,93.67
2019-06-07T04:06:12.808Z,93.66
2019-06-07T04:08:44.255Z,93.66
2019-06-07T04:11:15.538Z,93.48
2019-06-07T04:13:46.803Z,93.26
2019-06-07T04:16:18.019Z,93.14
2019-06-07T04:18:49.453Z,92.82
2019-06-07T04:21:20.676Z,92.58
2019-06-07T04:23:52.144Z,92.27
2019-06-07T04:26:24.987Z,91.84
2019-06-07T04:31:32.673Z,89.90
2019-06-07T04:34:04.608Z,87.49
2019-06-07T04:36:51.952Z,85.39
2019-06-07T04:39:10.561Z,84.35
2019-06-07T04:41:46.740Z,83.99
2019-06-07T04:44:21.972Z,81.66
2019-06-07T04:46:55.123Z,80.79
2019-06-07T04:49:27.165Z,79.34
2019-06-07T04:51:59.182Z,79.01
2019-06-07T04:54:31.481Z,79.10
2019-06-07T04:57:03.514Z,76.87
2019-06-07T05:00:10.460Z,76.54
2019-06-07T05:02:07.972Z,76.10
2019-06-07T05:04:42.215Z,74.31
2019-06-07T05:07:12.835Z,74.11
2019-06-07T05:09:45.418Z,74.27
2019-06-07T05:12:16.705Z,71.78
2019-06-07T05:14:48.319Z,71.65
2019-06-07T05:17:19.554Z,73.55
2019-06-07T05:19:52.220Z,71.45
2019-06-07T05:22:23.541Z,70.86
2019-06-07T05:24:55.656Z,69.17
2019-06-07T05:27:27.011Z,68.56
2019-06-07T05:30:13.356Z,68.29
2019-06-07T05:32:34.265Z,68.23
2019-06-07T05:35:10.602Z,67.53
2019-06-07T05:37:45.773Z,68.23
2019-06-07T05:40:21.414Z,67.90
2019-06-07T05:42:54.051Z,68.32
2019-06-07T05:45:29.810Z,67.99
2019-06-07T05:48:02.697Z,67.29
2019-06-07T05:50:44.934Z,67.56
2019-06-07T05:53:09.550Z,66.35
2019-06-07T05:55:46.864Z,65.14
2019-06-07T05:58:16.302Z,64.16
2019-06-07T06:00:48.705Z,63.96
2019-06-07T06:03:22.447Z,63.44
2019-06-07T06:05:55.831Z,62.52
2019-06-07T06:08:28.028Z,62.36
2019-06-07T06:10:59.371Z,64.54
2019-06-07T06:13:30.812Z,63.91
2019-06-07T06:16:03.950Z,62.03
2019-06-07T06:18:35.662Z,63.30
2019-06-07T06:21:18.499Z,64.38
2019-06-07T06:23:43.350Z,65.74
2019-06-07T06:26:15.322Z,67.16
2019-06-07T06:28:49.448Z,64.60
2019-06-07T06:31:20.359Z,63.34
2019-06-07T06:33:55.745Z,61.29
2019-06-07T06:36:28.052Z,61.40
2019-06-07T06:38:59.433Z,61.84
2019-06-07T06:41:31.013Z,62.25
2019-06-07T06:44:02.454Z,64.21
2019-06-07T06:46:41.076Z,61.46
2019-06-07T06:51:53.812Z,62.25
2019-06-07T06:54:40.284Z,60.64
2019-06-07T06:57:19.130Z,60.72
2019-06-07T06:59:39.087Z,62.50
2019-06-07T07:02:09.416Z,59.91
2019-06-07T07:04:43.591Z,59.42
2019-06-07T07:07:15.863Z,60.72
2019-06-07T07:09:59.083Z,61.16
2019-06-07T07:12:25.953Z,62.24
2019-06-07T07:14:59.404Z,63.83
2019-06-07T07:17:47.617Z,63.37
2019-06-07T07:20:07.016Z,65.47
2019-06-07T07:22:38.828Z,62.83
2019-06-07T07:25:14.606Z,63.42
2019-06-07T07:27:47.265Z,62.57
2019-06-07T07:30:36.899Z,61.34
2019-06-07T07:33:06.569Z,61.23
2019-06-07T07:35:38.735Z,61.03
2019-06-07T07:38:10.599Z,59.96
2019-06-07T07:41:01.841Z,59.79
2019-06-07T07:43:15.115Z,60.54
2019-06-07T07:45:53.141Z,62.29
2019-06-07T07:48:20.367Z,62.37
2019-06-07T07:51:00.035Z,57.64
2019-06-07T07:53:45.384Z,59.07
2019-06-07T07:56:00.582Z,59.06
2019-06-07T07:58:32.263Z,57.74
2019-06-07T08:01:10.091Z,57.59
2019-06-07T08:03:38.098Z,53.63
2019-06-07T08:06:10.115Z,58.37
2019-06-07T08:08:42.084Z,57.62
2019-06-07T08:11:13.521Z,58.33
2019-06-07T08:13:48.014Z,58.95
2019-06-07T08:16:20.074Z,57.79
2019-06-07T08:18:56.019Z,57.36
2019-06-07T08:21:26.947Z,57.49
2019-06-07T08:24:03.586Z,58.81
2019-06-07T08:26:33.795Z,55.27
2019-06-07T08:29:08.171Z,56.79
2019-06-07T08:31:40.045Z,54.28
2019-06-07T08:34:13.061Z,52.91
2019-06-07T08:36:45.071Z,51.53
2019-06-07T08:39:16.866Z,49.67
2019-06-07T08:41:59.363Z,50.70
2019-06-07T08:44:25.363Z,50.24
2019-06-07T08:47:16.064Z,53.50
2019-06-07T08:49:29.465Z,51.90
2019-06-07T08:52:10.504Z,54.10
2019-06-07T08:54:34.906Z,53.71
2019-06-07T08:57:19.984Z,55.79
2019-06-07T08:59:39.469Z,56.93
2019-06-07T09:02:23.375Z,54.80
2019-06-07T09:04:44.793Z,57.10
2019-06-07T09:07:19.866Z,59.71
2019-06-07T09:09:50.834Z,58.33
2019-06-07T09:12:25.385Z,57.04
2019-06-07T09:15:12.052Z,59.18
2019-06-07T09:17:31.103Z,57.20
2019-06-07T09:20:09.478Z,57.93
2019-06-07T09:22:36.350Z,58.98
2019-06-07T09:25:20.175Z,57.83
2019-06-07T09:27:43.042Z,55.93
2019-06-07T09:30:19.556Z,55.95
2019-06-07T09:32:51.312Z,56.61
2019-06-07T09:35:24.506Z,55.15
2019-06-07T09:38:07.392Z,54.21
2019-06-07T09:55:22.950Z,52.58
2019-06-07T10:00:48.852Z,53.72
2019-06-07T10:03:22.780Z,53.74
2019-06-07T10:11:43.194Z,52.81
2019-06-07T10:14:20.480Z,51.68
2019-06-07T10:16:53.843Z,51.59
2019-06-07T10:22:29.911Z,51.50
2019-06-07T10:27:54.773Z,49.58
2019-06-07T10:30:26.887Z,50.23
2019-06-07T10:32:59.984Z,51.26
2019-06-07T10:35:35.140Z,50.83
2019-06-07T10:38:07.185Z,49.86
2019-06-07T10:40:39.464Z,49.46
2019-06-07T10:43:14.421Z,49.13
2019-06-07T10:45:51.283Z,49.05
2019-06-07T10:54:26.977Z,48.86
2019-06-07T10:56:50.657Z,50.56
2019-06-07T10:59:24.136Z,48.88
2019-06-07T11:01:57.711Z,49.99
2019-06-07T11:04:29.653Z,49.84
2019-06-07T11:07:01.486Z,49.48
2019-06-07T11:09:33.608Z,50.22
2019-06-07T11:12:08.415Z,50.07
2019-06-07T11:14:41.373Z,50.58
2019-06-07T11:17:15.670Z,50.71
2019-06-07T11:19:47.949Z,47.93
2019-06-07T11:22:23.241Z,49.76
2019-06-07T11:24:55.433Z,50.31
2019-06-07T11:27:27.450Z,50.09
2019-06-07T11:29:59.375Z,49.72
2019-06-07T11:32:32.652Z,49.89
2019-06-07T11:35:08.756Z,49.16
2019-06-07T11:37:40.871Z,47.24
2019-06-07T11:40:32.060Z,47.63
2019-06-07T11:45:37.058Z,45.77
2019-06-07T11:48:09.152Z,47.10
2019-06-07T11:50:42.192Z,47.80
2019-06-07T11:53:19.792Z,45.53
2019-06-07T11:59:00.496Z,46.46
2019-06-07T12:33:35.572Z,45.30
2019-06-07T12:36:07.613Z,47.46
2019-06-07T12:38:39.485Z,47.32
2019-06-07T12:41:11.996Z,46.78
2019-06-07T12:43:44.276Z,45.32
2019-06-07T12:46:23.114Z,44.55
2019-06-07T12:52:22.851Z,46.91
2019-06-07T12:54:59.545Z,46.96
2019-06-07T12:57:33.136Z,46.35
2019-06-07T13:00:10.496Z,45.53
2019-06-07T13:02:45.834Z,45.91
2019-06-07T13:05:19.955Z,44.35
2019-06-07T13:07:52.131Z,46.33
2019-06-07T13:10:24.129Z,44.70
2019-06-07T13:12:56.066Z,46.12
2019-06-07T13:15:28.343Z,45.52
2019-06-07T13:18:00.611Z,46.13
2019-06-07T13:20:34.690Z,45.29
2019-06-07T13:23:06.515Z,45.16
2019-06-07T13:25:46.256Z,44.92
2019-06-07T13:28:14.220Z,45.48
2019-06-07T13:30:46.060Z,44.48
2019-06-07T13:33:18.906Z,44.22
2019-06-07T13:35:51.768Z,43.94
2019-06-07T13:38:26.929Z,43.50
2019-06-07T13:40:58.719Z,44.46
2019-06-07T13:43:30.658Z,45.45
2019-06-07T13:46:03.486Z,43.66
2019-06-07T13:48:35.394Z,44.31
2019-06-07T13:51:07.202Z,44.26
2019-06-07T13:53:39.062Z,45.63
2019-06-07T13:56:10.926Z,44.47
2019-06-07T13:58:42.886Z,44.29
2019-06-07T14:01:14.672Z,45.08
2019-06-07T14:03:46.554Z,45.11
2019-06-07T14:06:18.972Z,44.35
2019-06-07T14:08:50.912Z,45.14
2019-06-07T14:11:23.618Z,43.24
2019-06-07T14:13:55.596Z,44.47
2019-06-07T14:16:28.363Z,43.40
2019-06-07T14:19:00.196Z,43.34
2019-06-07T14:21:32.015Z,42.94
2019-06-07T14:24:03.779Z,43.31
2019-06-07T14:26:35.637Z,42.18
2019-06-07T14:29:07.730Z,42.28
2019-06-07T14:31:39.556Z,43.20
2019-06-07T14:34:11.425Z,43.15
2019-06-07T14:36:43.289Z,43.04
2019-06-07T14:39:15.303Z,43.09
2019-06-07T14:41:47.242Z,42.45
2019-06-07T14:44:19.204Z,41.82
2019-06-07T14:46:51.016Z,42.69
2019-06-07T14:49:24.207Z,43.04
2019-06-07T14:51:56.309Z,40.53
2019-06-07T14:54:31.714Z,42.82
2019-06-07T14:57:03.504Z,42.82
2019-06-07T14:59:35.644Z,42.77
2019-06-07T15:02:07.681Z,41.84
2019-06-07T15:04:43.192Z,42.38
2019-06-07T15:07:15.111Z,42.53
2019-06-07T15:09:46.443Z,41.89
2019-06-07T15:12:24.998Z,41.95
2019-06-07T15:14:51.963Z,42.88
2019-06-07T15:17:24.072Z,42.32
2019-06-07T15:19:56.407Z,42.20
2019-06-07T15:22:28.235Z,43.01
2019-06-07T15:25:02.392Z,43.06
2019-06-07T15:27:35.339Z,43.47
2019-06-07T15:30:12.914Z,42.78
2019-06-07T15:32:44.691Z,43.54
2019-06-07T15:35:16.899Z,43.83
2019-06-07T15:37:48.705Z,44.08
2019-06-07T15:40:21.101Z,44.38
2019-06-07T15:42:53.457Z,44.26
2019-06-07T15:45:25.544Z,44.66
2019-06-07T15:47:58.139Z,44.90
2019-06-07T15:50:32.202Z,44.80
2019-06-07T15:53:04.067Z,45.60
2019-06-07T15:55:39.520Z,44.63
2019-06-07T15:58:09.412Z,44.42
2019-06-07T16:00:42.659Z,44.53
2019-06-07T16:03:15.263Z,44.08
2019-06-07T16:05:47.103Z,45.11
2019-06-07T16:08:18.932Z,44.89
2019-06-07T16:10:50.214Z,45.70
2019-06-07T16:13:22.023Z,44.76
2019-06-07T16:15:53.366Z,44.80
2019-06-07T16:18:24.546Z,44.89
2019-06-07T16:20:55.752Z,46.00
2019-06-07T16:23:27.504Z,46.86
2019-06-07T16:25:58.736Z,47.23
2019-06-07T16:28:29.985Z,46.73
2019-06-07T16:31:01.875Z,46.91
2019-06-07T16:33:33.252Z,47.24
2019-06-07T16:42:45.060Z,48.21
2019-06-07T16:48:30.583Z,47.83
2019-06-07T16:51:01.996Z,48.87
2019-06-07T16:53:33.981Z,48.48
2019-06-07T16:56:06.128Z,48.19
2019-06-07T16:59:13.505Z,47.51
2019-06-07T17:01:56.416Z,47.97
2019-06-07T17:04:30.248Z,47.13
2019-06-07T17:07:01.500Z,47.08
2019-06-07T17:09:33.763Z,47.02
2019-06-07T17:12:05.513Z,47.28
2019-06-07T17:14:36.883Z,47.00
2019-06-07T17:17:08.161Z,46.28
2019-06-07T17:19:40.777Z,46.60
2019-06-07T17:22:25.893Z,45.08
2019-06-07T17:24:58.647Z,44.81
2019-06-07T17:27:32.431Z,44.56
2019-06-07T17:33:35.643Z,45.24
2019-06-07T17:36:06.957Z,45.59
2019-06-07T17:49:41.745Z,45.93
2019-06-07T17:52:13.608Z,45.94
2019-06-07T17:58:22.802Z,45.99
2019-06-07T18:08:10.550Z,45.56
2019-06-07T18:14:14.480Z,45.72
2019-06-07T18:16:46.721Z,45.41
2019-06-07T18:19:18.586Z,44.67
2019-06-07T18:21:55.425Z,44.92
2019-06-07T18:24:24.022Z,45.16
2019-06-07T18:26:55.956Z,45.76
2019-06-07T18:29:27.911Z,45.59
2019-06-07T18:32:00.343Z,45.91
2019-06-07T18:34:32.418Z,45.73
2019-06-07T18:37:04.257Z,45.59
2019-06-07T18:39:37.679Z,45.84
2019-06-07T18:42:09.457Z,45.77
2019-06-07T18:44:41.493Z,45.81
2019-06-07T18:47:13.367Z,46.13
2019-06-07T18:49:53.556Z,46.70
2019-06-07T18:52:27.031Z,45.81
2019-06-07T18:55:05.505Z,45.25
2019-06-07T18:57:36.776Z,45.87
2019-06-07T19:00:12.713Z,46.15
2019-06-07T19:02:44.738Z,45.26
2019-06-07T19:05:16.943Z,45.18
2019-06-07T19:07:48.866Z,45.26
2019-06-07T19:10:21.508Z,45.16
2019-06-07T19:12:53.269Z,45.32
2019-06-07T19:15:27.816Z,45.17
2019-06-07T19:18:02.752Z,45.45
2019-06-07T19:20:35.477Z,45.50
2019-06-07T19:23:07.311Z,44.79
2019-06-07T19:25:40.619Z,45.07
2019-06-07T19:28:15.587Z,45.09
2019-06-07T19:30:48.873Z,45.56
2019-06-07T19:33:20.619Z,45.37
2019-06-07T19:35:57.444Z,45.46
2019-06-07T19:38:35.425Z,45.04
2019-06-07T19:41:19.247Z,45.30
2019-06-07T19:43:44.293Z,45.46
2019-06-07T19:46:16.287Z,45.37
2019-06-07T19:48:49.555Z,45.71
2019-06-07T19:51:20.904Z,45.85
2019-06-07T19:53:52.962Z,46.13
2019-06-07T19:56:26.384Z,45.88
2019-06-07T19:58:57.741Z,45.71
2019-06-07T20:01:30.621Z,45.59
2019-06-07T20:04:02.552Z,45.37
2019-06-07T20:06:33.902Z,45.81
2019-06-07T20:12:10.868Z,46.48
2019-06-07T20:14:42.148Z,46.45
2019-06-07T20:17:14.084Z,46.57
2019-06-07T20:19:45.527Z,46.91
2019-06-07T20:22:17.416Z,46.76
2019-06-07T20:24:52.103Z,46.52
2019-06-07T20:27:25.775Z,46.72
2019-06-07T20:33:27.278Z,47.10
2019-06-07T20:36:00.722Z,46.96
2019-06-07T20:38:34.965Z,46.48
2019-06-07T20:41:07.756Z,46.74
2019-06-07T20:43:40.775Z,46.70
2019-06-07T20:46:12.159Z,46.45
2019-06-07T20:48:43.780Z,47.02
2019-06-07T20:51:21.459Z,47.36
2019-06-07T20:53:54.033Z,47.19
2019-06-07T20:56:29.010Z,47.21
2019-06-07T20:59:12.416Z,47.08
2019-06-07T21:01:46.493Z,47.27
2019-06-07T21:07:46.885Z,47.57
2019-06-07T21:17:06.717Z,48.16
2019-06-07T21:19:47.504Z,48.13
2019-06-07T21:22:19.575Z,46.08
2019-06-07T21:24:53.581Z,47.20
2019-06-07T21:27:35.933Z,49.09
2019-06-07T21:30:17.733Z,49.01
2019-06-07T21:32:50.392Z,48.81
2019-06-07T21:35:21.979Z,48.52
2019-06-07T21:37:53.265Z,49.18
2019-06-07T21:40:24.534Z,48.99
2019-06-07T21:42:55.960Z,49.12
2019-06-07T21:45:28.338Z,49.83
2019-06-07T21:47:59.642Z,48.87
2019-06-07T21:50:30.918Z,48.71
2019-06-07T21:53:04.491Z,47.96
2019-06-07T21:55:35.923Z,47.99
2019-06-07T21:58:07.280Z,48.09
2019-06-07T22:00:57.747Z,48.59
2019-06-07T22:03:29.073Z,49.05
2019-06-07T22:06:00.289Z,48.21
2019-06-07T22:08:33.774Z,48.37
2019-06-07T22:11:06.071Z,47.70
2019-06-07T22:13:37.532Z,47.60
2019-06-07T22:16:25.627Z,47.67
2019-06-07T22:18:42.645Z,47.90
2019-06-07T22:21:14.776Z,51.44
2019-06-07T22:23:46.027Z,49.66
2019-06-07T22:26:17.347Z,49.97
2019-06-07T22:28:48.618Z,49.25
2019-06-07T22:31:20.023Z,49.47
2019-06-07T22:33:51.305Z,49.36
2019-06-07T22:36:33.192Z,49.03
2019-06-07T22:39:07.831Z,48.80
2019-06-07T22:41:39.251Z,49.13
2019-06-07T22:44:13.137Z,49.47
2019-06-07T22:47:12.169Z,51.33
2019-06-07T22:49:43.516Z,49.23
2019-06-07T22:52:30.988Z,48.06
2019-06-07T22:55:10.074Z,47.59
2019-06-07T22:58:03.746Z,47.62
2019-06-07T23:00:36.598Z,47.66
2019-06-07T23:03:08.531Z,47.69
2019-06-07T23:05:39.787Z,47.62
2019-06-07T23:08:11.147Z,47.69
2019-06-07T23:10:44.575Z,47.70
2019-06-07T23:13:15.909Z,47.56
2019-06-07T23:15:55.077Z,47.73
2019-06-07T23:18:26.393Z,48.27
2019-06-07T23:20:57.909Z,48.04
2019-06-07T23:23:29.351Z,48.22
2019-06-07T23:26:03.266Z,48.25
2019-06-07T23:28:34.539Z,48.16
2019-06-07T23:31:05.892Z,47.71
2019-06-07T23:33:37.302Z,47.60
2019-06-07T23:36:08.564Z,48.09
2019-06-07T23:38:41.805Z,48.18
2019-06-07T23:41:13.581Z,48.43
2019-06-07T23:43:44.973Z,48.52
2019-06-07T23:46:17.365Z,47.78
2019-06-07T23:48:50.474Z,48.02
2019-06-07T23:51:22.729Z,47.82
2019-06-07T23:53:54.026Z,48.28
2019-06-07T23:56:25.214Z,47.97
2019-06-07T23:58:56.520Z,47.36
